Time;durP1;ratioP1;P1;durP2;ratioP2;P2;SDS_P1;SDS_P2;PMS_P1;PMS_P2;Temp;Humidity;BMP_temperature;BMP_pressure;BME280_temperature;BME280_humidity;BME280_pressure;Samples;Min_cycle;Max_cycle;Signal;HPM_P1;HPM_P2
2023/04/06 00:01:51;;;;;;;2.97;2.37;;;;;;;1.36;100.00;99363.75;124776;1098;104561;-76
2023/04/06 00:04:26;;;;;;;3.60;2.25;;;;;;;1.39;100.00;99375.95;124820;1099;102248;-76
2023/04/06 00:07:04;;;;;;;5.47;2.57;;;;;;;1.39;100.00;99366.50;124687;1099;104005;-75
2023/04/06 00:09:38;;;;;;;4.20;2.60;;;;;;;1.39;100.00;99369.08;124856;1099;104449;-77
2023/04/06 00:12:13;;;;;;;4.67;3.10;;;;;;;1.39;100.00;99368.20;124760;1099;102068;-75
2023/04/06 00:14:48;;;;;;;4.40;2.97;;;;;;;1.35;100.00;99359.38;124499;1099;104143;-76
2023/04/06 00:17:23;;;;;;;4.93;2.63;;;;;;;1.38;100.00;99351.78;124865;1099;102073;-76
2023/04/06 00:19:58;;;;;;;3.97;2.80;;;;;;;1.38;100.00;99349.20;124774;1099;102017;-74
2023/04/06 00:22:32;;;;;;;4.60;2.57;;;;;;;1.39;100.00;99350.98;124773;1099;104018;-75
2023/04/06 00:25:06;;;;;;;6.22;2.90;;;;;;;1.40;100.00;99334.68;124888;1099;103970;-74
2023/04/06 00:27:38;;;;;;;4.50;2.80;;;;;;;1.40;100.00;99346.69;124725;1098;103955;-76
2023/04/06 00:30:12;;;;;;;4.03;2.70;;;;;;;1.39;100.00;99344.94;124780;1099;101927;-76
2023/04/06 00:32:45;;;;;;;4.40;2.30;;;;;;;1.38;100.00;99337.98;124753;1099;103962;-76
2023/04/06 00:35:17;;;;;;;3.30;2.60;;;;;;;1.38;100.00;99344.03;124790;1099;103963;-76
2023/04/06 00:37:50;;;;;;;4.15;2.85;;;;;;;1.37;100.00;99342.27;124805;1099;101817;-75
2023/04/06 00:40:22;;;;;;;3.37;2.60;;;;;;;1.38;100.00;99341.44;124774;1098;104018;-76
2023/04/06 00:42:55;;;;;;;5.10;3.07;;;;;;;1.37;100.00;99338.77;124437;1099;103919;-77
2023/04/06 00:45:27;;;;;;;4.97;3.03;;;;;;;1.37;100.00;99334.52;124830;1099;104003;-74
2023/04/06 00:48:01;;;;;;;6.37;3.33;;;;;;;1.37;100.00;99318.09;124734;1099;101702;-76
2023/04/06 00:50:34;;;;;;;4.95;2.75;;;;;;;1.39;100.00;99342.36;124687;1099;101868;-75
2023/04/06 00:53:06;;;;;;;4.77;2.93;;;;;;;1.39;100.00;99325.14;124670;1099;103874;-74
2023/04/06 00:55:39;;;;;;;4.63;3.00;;;;;;;1.41;100.00;99322.63;124788;1099;104022;-75
2023/04/06 00:58:13;;;;;;;5.10;2.62;;;;;;;1.41;100.00;99320.05;124347;1099;103970;-76
2023/04/06 01:00:52;;;;;;;5.30;3.23;;;;;;;1.40;100.00;99318.26;124410;1099;104035;-76
2023/04/06 01:03:26;;;;;;;4.37;2.80;;;;;;;1.39;100.00;99306.16;127005;1098;101889;-75
2023/04/06 01:05:59;;;;;;;4.93;2.97;;;;;;;1.38;100.00;99310.42;124539;1099;103948;-74
2023/04/06 01:08:36;;;;;;;3.40;2.50;;;;;;;1.38;100.00;99310.42;124837;1099;104089;-75
2023/04/06 01:11:27;;;;;;;6.17;3.30;;;;;;;1.39;100.00;99301.88;124739;1099;103939;-74
2023/04/06 01:13:59;;;;;;;4.83;2.50;;;;;;;1.40;100.00;99297.58;124795;1099;103938;-76
2023/04/06 01:16:43;;;;;;;5.97;2.57;;;;;;;1.41;100.00;99304.54;124749;1099;104021;-75
2023/04/06 01:19:23;;;;;;;3.50;2.47;;;;;;;1.40;100.00;99297.58;124835;1098;108322;-76
2023/04/06 01:21:57;;;;;;;3.53;2.37;;;;;;;1.40;100.00;99305.33;124571;1099;101804;-76
2023/04/06 01:24:36;;;;;;;4.00;2.40;;;;;;;1.39;100.00;99304.45;124783;1099;104034;-75
2023/04/06 01:27:27;;;;;;;4.47;2.90;;;;;;;1.40;100.00;99305.33;124852;1099;101820;-76
2023/04/06 01:30:08;;;;;;;3.53;2.67;;;;;;;1.39;100.00;99299.28;124912;1099;103989;-76
2023/04/06 01:33:18;;;;;;;5.27;2.93;;;;;;;1.41;100.00;99297.66;124345;1102;104107;-76
2023/04/06 01:36:05;;;;;;;4.80;2.80;;;;;;;1.43;100.00;99302.91;124356;1102;104009;-76
2023/04/06 01:38:38;;;;;;;3.60;2.67;;;;;;;1.42;100.00;99303.74;124444;1099;101637;-74
2023/04/06 01:41:11;;;;;;;3.47;2.30;;;;;;;1.42;100.00;99294.28;124413;1099;102961;-76
2023/04/06 01:43:54;;;;;;;3.80;2.67;;;;;;;1.42;100.00;99302.03;124866;1099;103941;-75
2023/04/06 01:46:29;;;;;;;3.87;2.50;;;;;;;1.43;100.00;99301.23;124838;1099;104051;-77
2023/04/06 01:49:02;;;;;;;4.93;2.63;;;;;;;1.43;100.00;99303.83;124463;1099;101713;-74
2023/04/06 01:51:45;;;;;;;3.33;2.53;;;;;;;1.42;100.00;99298.57;124825;1099;101663;-76
2023/04/06 01:54:18;;;;;;;6.23;2.70;;;;;;;1.40;100.00;99298.49;124776;1099;103948;-78
2023/04/06 01:57:15;;;;;;;3.73;2.43;;;;;;;1.41;100.00;99304.54;124701;1099;104057;-76
2023/04/06 01:59:54;;;;;;;3.30;2.30;;;;;;;1.41;100.00;99302.83;124620;1099;104516;-75
2023/04/06 02:02:35;;;;;;;3.33;2.40;;;;;;;1.40;100.00;99295.91;124635;1098;103993;-74
2023/04/06 02:05:11;;;;;;;4.07;2.30;;;;;;;1.41;100.00;99295.08;124543;1099;103970;-75
2023/04/06 02:07:43;;;;;;;5.03;2.70;;;;;;;1.43;100.00;99300.33;124569;1099;104102;-74
2023/04/06 02:10:17;;;;;;;3.00;2.13;;;;;;;1.41;100.00;99302.83;124615;1099;103935;-74
2023/04/06 02:12:50;;;;;;;4.90;2.90;;;;;;;1.40;100.00;99290.73;125592;1099;104002;-75
2023/04/06 02:15:26;;;;;;;3.87;2.57;;;;;;;1.40;100.00;99288.15;124521;1099;104080;-75
2023/04/06 02:18:00;;;;;;;3.43;2.30;;;;;;;1.42;100.00;99288.23;124229;1099;104031;-75
2023/04/06 02:20:32;;;;;;;5.85;2.60;;;;;;;1.41;100.00;99295.08;124602;1099;104037;-74
2023/04/06 02:23:05;;;;;;;2.23;2.00;;;;;;;1.41;100.00;99292.49;125913;1098;102039;-72
2023/04/06 02:25:37;;;;;;;3.00;2.37;;;;;;;1.40;100.00;99293.32;124547;1099;104210;-72
2023/04/06 02:28:10;;;;;;;4.90;2.27;;;;;;;1.40;100.00;99285.56;125851;1098;104037;-72
2023/04/06 02:30:42;;;;;;;3.77;2.30;;;;;;;1.41;100.00;99294.20;124610;1099;104048;-72
2023/04/06 02:33:14;;;;;;;2.10;1.90;;;;;;;1.38;100.00;99279.41;124620;1099;104064;-72
2023/04/06 02:35:50;;;;;;;3.13;2.27;;;;;;;1.38;100.00;99287.16;124203;1099;104030;-72
2023/04/06 02:38:22;;;;;;;3.17;2.27;;;;;;;1.38;100.00;99291.45;124489;1099;103173;-72
2023/04/06 02:40:55;;;;;;;2.50;2.00;;;;;;;1.39;100.00;99282.91;124581;1099;103868;-71
2023/04/06 02:43:29;;;;;;;3.13;2.40;;;;;;;1.39;100.00;99283.78;124630;1099;104070;-72
2023/04/06 02:46:11;;;;;;;2.80;2.30;;;;;;;1.41;100.00;99286.45;124641;1099;104000;-71
2023/04/06 02:48:44;;;;;;;3.27;2.40;;;;;;;1.40;100.00;99282.98;124510;1099;104057;-73
2023/04/06 02:51:16;;;;;;;2.97;2.33;;;;;;;1.40;100.00;99279.48;124630;1099;107922;-72
2023/04/06 02:53:50;;;;;;;2.30;2.10;;;;;;;1.39;100.00;99288.95;124988;1099;104035;-71
2023/04/06 02:56:23;;;;;;;3.20;2.00;;;;;;;1.39;100.00;99294.12;124137;1099;103957;-72
2023/04/06 02:58:56;;;;;;;2.00;1.80;;;;;;;1.40;100.00;99297.58;124180;1099;104028;-72
2023/04/06 03:01:30;;;;;;;2.87;2.00;;;;;;;1.41;100.00;99301.95;124519;1099;118337;-71
2023/04/06 03:04:05;;;;;;;3.20;2.13;;;;;;;1.40;100.00;99298.49;124530;1099;104133;-72
2023/04/06 03:06:37;;;;;;;2.83;2.10;;;;;;;1.41;100.00;99297.66;124618;1099;104031;-73
2023/04/06 03:09:17;;;;;;;2.87;1.90;;;;;;;1.44;100.00;99304.70;124253;1099;104123;-72
2023/04/06 03:11:49;;;;;;;2.30;1.90;;;;;;;1.44;100.00;99297.82;124814;1099;103149;-72
2023/04/06 03:14:22;;;;;;;2.57;2.00;;;;;;;1.44;100.00;99295.23;124171;1099;104149;-71
2023/04/06 03:16:55;;;;;;;2.35;1.90;;;;;;;1.45;100.00;99306.48;124177;1099;103993;-72
2023/04/06 03:19:27;;;;;;;2.90;1.97;;;;;;;1.43;100.00;99298.66;124263;1099;103954;-72
2023/04/06 03:22:01;;;;;;;3.27;2.07;;;;;;;1.44;100.00;99304.70;124191;1099;104047;-72
2023/04/06 03:24:34;;;;;;;2.10;1.80;;;;;;;1.47;100.00;99306.57;124214;1099;102055;-72
2023/04/06 03:27:06;;;;;;;2.43;1.83;;;;;;;1.48;100.00;99308.33;125113;1098;103951;-72
2023/04/06 03:29:39;;;;;;;4.12;2.45;;;;;;;1.49;100.00;99312.70;124569;1099;103883;-73
2023/04/06 03:32:13;;;;;;;2.62;1.92;;;;;;;1.49;100.00;99307.53;124139;1099;103968;-72
2023/04/06 03:34:47;;;;;;;1.60;1.50;;;;;;;1.49;100.00;99305.82;124523;1099;103967;-71
2023/04/06 03:37:20;;;;;;;2.30;1.90;;;;;;;1.51;100.00;99313.66;125501;1099;104037;-72
2023/04/06 03:39:55;;;;;;;2.33;1.90;;;;;;;1.52;100.00;99310.27;124213;1099;103987;-72
2023/04/06 03:42:28;;;;;;;2.80;2.10;;;;;;;1.53;100.00;99317.23;124114;1099;107961;-72
2023/04/06 03:45:08;;;;;;;2.50;1.77;;;;;;;1.54;100.00;99314.73;124119;1102;103945;-72
2023/04/06 03:47:41;;;;;;;3.27;2.00;;;;;;;1.54;100.00;99330.24;124255;1099;104529;-72
2023/04/06 03:50:14;;;;;;;3.20;2.20;;;;;;;1.54;100.00;99325.07;124431;1099;101767;-73
2023/04/06 03:52:46;;;;;;;4.43;2.10;;;;;;;1.53;100.00;99337.92;124858;1099;117792;-74
2023/04/06 03:55:19;;;;;;;3.20;2.20;;;;;;;1.53;100.00;99327.58;124854;1099;103977;-71
2023/04/06 03:57:51;;;;;;;2.37;2.00;;;;;;;1.53;100.00;99332.75;124889;1099;104040;-72
2023/04/06 04:00:24;;;;;;;2.80;2.03;;;;;;;1.54;100.00;99334.50;124434;1099;103974;-74
2023/04/06 04:02:56;;;;;;;2.73;1.87;;;;;;;1.53;100.00;99343.09;124799;1099;103952;-74
2023/04/06 04:05:29;;;;;;;2.30;2.10;;;;;;;1.53;100.00;99338.80;124906;1099;103977;-74
2023/04/06 04:08:01;;;;;;;4.40;2.10;;;;;;;1.55;100.00;99337.17;124748;1099;103964;-72
2023/04/06 04:10:33;;;;;;;2.87;2.17;;;;;;;1.56;100.00;99346.72;124593;1099;104044;-72
2023/04/06 04:13:05;;;;;;;3.10;2.30;;;;;;;1.56;100.00;99338.08;124754;1099;103945;-73
2023/04/06 04:15:38;;;;;;;3.23;2.30;;;;;;;1.58;100.00;99342.50;124998;1099;101588;-73
2023/04/06 04:18:10;;;;;;;2.67;2.10;;;;;;;1.58;100.00;99339.92;124482;1100;104102;-74
2023/04/06 04:20:45;;;;;;;2.87;2.37;;;;;;;1.59;100.00;99336.53;124957;1099;101794;-73
2023/04/06 04:23:18;;;;;;;3.70;2.50;;;;;;;1.61;100.00;99341.78;124604;1099;104022;-73
2023/04/06 04:25:50;;;;;;;3.90;2.20;;;;;;;1.61;100.00;99347.84;124440;1099;104027;-72
2023/04/06 04:28:24;;;;;;;4.25;2.52;;;;;;;1.63;100.00;99345.33;124863;1099;103958;-73
2023/04/06 04:30:59;;;;;;;3.73;2.30;;;;;;;1.66;100.00;99345.50;124503;1102;104021;-73
2023/04/06 04:33:33;;;;;;;3.00;2.37;;;;;;;1.66;100.00;99354.96;124899;1099;104171;-73
2023/04/06 04:36:09;;;;;;;4.03;2.42;;;;;;;1.65;100.00;99351.46;124528;1099;104003;-74
2023/04/06 04:38:45;;;;;;;4.13;2.50;;;;;;;1.65;100.00;99348.88;124533;1099;103331;-72
2023/04/06 04:41:18;;;;;;;4.87;2.70;;;;;;;1.66;100.00;99337.73;124482;1099;104057;-72
2023/04/06 04:43:52;;;;;;;3.90;2.47;;;;;;;1.67;100.00;99348.95;124319;1102;118582;-74
2023/04/06 04:46:27;;;;;;;3.57;2.40;;;;;;;1.68;100.00;99343.87;124479;1099;104040;-70
2023/04/06 04:49:00;;;;;;;3.57;2.40;;;;;;;1.67;100.00;99355.05;124846;1099;103921;-71
2023/04/06 04:51:33;;;;;;;3.83;2.43;;;;;;;1.68;100.00;99358.50;124470;1099;104034;-75
2023/04/06 04:54:15;;;;;;;5.20;2.70;;;;;;;1.68;100.00;99356.80;124870;1098;104037;-71
2023/04/06 04:56:48;;;;;;;3.03;2.53;;;;;;;1.70;100.00;99357.79;124884;1099;103977;-70
2023/04/06 04:59:29;;;;;;;4.20;2.40;;;;;;;1.71;100.00;99348.32;124601;1099;103268;-73
2023/04/06 05:02:06;;;;;;;4.30;2.60;;;;;;;1.72;100.00;99363.92;124636;1099;104226;-73
2023/04/06 05:04:47;;;;;;;5.47;2.57;;;;;;;1.72;100.00;99363.92;124257;1099;110872;-72
2023/04/06 05:07:24;;;;;;;5.83;2.93;;;;;;;1.74;100.00;99353.66;124508;1099;104079;-75
2023/04/06 05:09:58;;;;;;;4.25;2.72;;;;;;;1.76;100.00;99364.96;124752;1099;103942;-74
2023/04/06 05:12:32;;;;;;;4.70;2.87;;;;;;;1.76;100.00;99373.63;124222;1099;103945;-72
2023/04/06 05:15:14;;;;;;;4.83;2.87;;;;;;;1.79;100.00;99368.63;124206;1099;103967;-77
2023/04/06 05:17:47;;;;;;;3.97;2.63;;;;;;;1.80;100.00;99367.78;125593;1099;103212;-75
2023/04/06 05:20:21;;;;;;;4.90;2.80;;;;;;;1.81;100.00;99360.94;124894;1099;104056;-72
2023/04/06 05:22:55;;;;;;;5.15;2.70;;;;;;;1.82;100.00;99361.81;125211;1099;103982;-75
2023/04/06 05:25:29;;;;;;;5.90;3.40;;;;;;;1.83;100.00;99354.14;124851;1099;107056;-71
2023/04/06 05:28:04;;;;;;;6.03;2.83;;;;;;;1.88;100.00;99362.14;124611;1099;104034;-71
2023/04/06 05:30:39;;;;;;;6.67;3.47;;;;;;;1.91;100.00;99367.47;124687;1099;103942;-72
2023/04/06 05:33:15;;;;;;;4.03;2.63;;;;;;;1.90;100.00;99363.09;125093;1099;104130;-74
2023/04/06 05:36:13;;;;;;;4.07;2.83;;;;;;;1.90;100.00;99356.24;125363;1098;117682;-74
2023/04/06 05:38:52;;;;;;;5.00;2.90;;;;;;;1.88;100.00;99362.14;125261;1099;103948;-74
2023/04/06 05:41:37;;;;;;;4.77;2.80;;;;;;;1.89;100.00;99363.92;125067;1099;102262;-74
2023/04/06 05:44:09;;;;;;;3.63;2.80;;;;;;;1.90;100.00;99363.09;124660;1099;103901;-71
2023/04/06 05:46:55;;;;;;;5.93;3.17;;;;;;;1.90;100.00;99360.51;124298;1099;103990;-71
2023/04/06 05:49:29;;;;;;;5.40;2.80;;;;;;;1.95;100.00;99352.19;124135;1099;104053;-71
2023/04/06 05:52:02;;;;;;;6.10;3.10;;;;;;;1.97;100.00;99362.61;124580;1099;104098;-72
2023/04/06 05:54:37;;;;;;;5.67;3.02;;;;;;;1.99;100.00;99358.39;124402;1099;103939;-75
2023/04/06 05:57:11;;;;;;;4.17;2.80;;;;;;;2.01;100.00;99359.39;125530;1099;102209;-77
2023/04/06 05:59:45;;;;;;;4.90;3.00;;;;;;;2.03;100.00;99349.12;125204;1099;103939;-77
2023/04/06 06:02:19;;;;;;;4.87;3.20;;;;;;;2.05;100.00;99358.71;124670;1099;101723;-75
2023/04/06 06:04:57;;;;;;;8.07;3.33;;;;;;;2.07;100.00;99353.61;124689;1099;104205;-74
2023/04/06 06:07:30;;;;;;;7.43;3.23;;;;;;;2.10;100.00;99353.77;124370;1099;103951;-74
2023/04/06 06:10:07;;;;;;;6.80;3.37;;;;;;;2.12;100.00;99355.64;124250;1099;104082;-73
2023/04/06 06:12:41;;;;;;;5.87;3.17;;;;;;;2.12;100.00;99360.81;124198;1099;103996;-75
2023/04/06 06:15:16;;;;;;;6.73;2.93;;;;;;;2.15;100.00;99358.38;124259;1099;103942;-76
2023/04/06 06:17:52;;;;;;;4.17;2.80;;;;;;;2.18;100.00;99357.62;124305;1099;104031;-76
2023/04/06 06:20:30;;;;;;;4.80;3.20;;;;;;;2.19;100.00;99358.54;124732;1099;101823;-77
2023/04/06 06:23:08;;;;;;;5.40;2.83;;;;;;;2.21;100.00;99354.31;124149;1099;101614;-74
2023/04/06 06:25:44;;;;;;;6.20;3.47;;;;;;;2.23;100.00;99357.86;124235;1099;104092;-74
2023/04/06 06:28:17;;;;;;;7.97;3.93;;;;;;;2.30;100.00;99359.96;124195;1102;103931;-74
2023/04/06 06:30:50;;;;;;;5.47;2.90;;;;;;;2.36;100.00;99367.16;124333;1099;103986;-72
2023/04/06 06:33:27;;;;;;;7.40;3.20;;;;;;;2.34;100.00;99365.37;124361;1099;104057;-73
2023/04/06 06:36:15;;;;;;;4.95;3.20;;;;;;;2.32;100.00;99372.18;124296;1099;104041;-77
2023/04/06 06:38:51;;;;;;;4.67;2.93;;;;;;;2.32;100.00;99369.59;124397;1099;103268;-81
2023/04/06 06:41:27;;;;;;;7.00;3.07;;;;;;;2.34;100.00;99373.14;124558;1099;104027;-77
2023/04/06 06:44:04;;;;;;;7.27;3.60;;;;;;;2.34;100.00;99375.72;124767;1099;101772;-75
2023/04/06 06:46:38;;;;;;;6.25;3.30;;;;;;;2.36;100.00;99378.39;124524;1099;104047;-75
2023/04/06 06:49:14;;;;;;;7.67;3.60;;;;;;;2.37;100.00;99387.03;124198;1099;104532;-74
2023/04/06 06:51:47;;;;;;;6.13;3.50;;;;;;;2.38;100.00;99386.23;124630;1098;104016;-77
2023/04/06 06:54:19;;;;;;;7.47;3.83;;;;;;;2.41;100.00;99392.45;124403;1099;104145;-76
2023/04/06 06:56:52;;;;;;;6.47;3.83;;;;;;;2.45;100.00;99389.21;124715;1099;104162;-74
2023/04/06 06:59:25;;;;;;;5.37;3.30;;;;;;;2.47;100.00;99399.64;124449;1099;103967;-73
2023/04/06 07:01:57;;;;;;;8.50;4.30;;;;;;;2.49;100.00;99393.74;124728;1098;104012;-73
2023/04/06 07:04:30;;;;;;;8.20;3.93;;;;;;;2.55;100.00;99402.62;124621;1099;101727;-72
2023/04/06 07:07:03;;;;;;;7.73;3.70;;;;;;;2.58;100.00;99402.77;124630;1099;104067;-73
2023/04/06 07:09:36;;;;;;;9.50;3.70;;;;;;;2.57;100.00;99407.08;124586;1099;104079;-73
2023/04/06 07:12:10;;;;;;;9.63;3.87;;;;;;;2.58;100.00;99416.60;124721;1099;103977;-72
2023/04/06 07:14:56;;;;;;;8.17;3.43;;;;;;;2.59;100.00;99418.39;124756;1099;103938;-72
2023/04/06 07:17:36;;;;;;;10.77;3.50;;;;;;;2.61;100.00;99408.98;125444;1099;103990;-73
2023/04/06 07:20:12;;;;;;;8.30;4.43;;;;;;;2.66;100.00;99410.09;124586;1099;104309;-72
2023/04/06 07:22:48;;;;;;;7.53;4.10;;;;;;;2.67;100.00;99414.47;124670;1099;101799;-74
2023/04/06 07:25:20;;;;;;;8.03;3.52;;;;;;;2.66;100.00;99424.75;124701;1099;104046;-73
2023/04/06 07:27:53;;;;;;;8.90;4.17;;;;;;;2.65;100.00;99421.28;124643;1099;101871;-73
2023/04/06 07:30:29;;;;;;;10.37;4.03;;;;;;;2.71;100.00;99420.68;124833;1099;104066;-76
2023/04/06 07:33:02;;;;;;;6.50;3.70;;;;;;;2.72;100.00;99424.19;124690;1099;102403;-75
2023/04/06 07:35:37;;;;;;;7.03;3.90;;;;;;;2.69;100.00;99430.09;124682;1099;103979;-75
2023/04/06 07:38:10;;;;;;;10.93;4.73;;;;;;;2.69;100.00;99430.97;124689;1099;101775;-74
2023/04/06 07:40:45;;;;;;;11.70;4.60;;;;;;;2.74;100.00;99433.78;124301;1099;104188;-75
2023/04/06 07:43:18;;;;;;;7.87;4.13;;;;;;;2.78;100.00;99433.14;124865;1099;102152;-75
2023/04/06 07:45:50;;;;;;;12.00;4.80;;;;;;;2.81;100.00;99432.41;124668;1099;104181;-74
2023/04/06 07:48:26;;;;;;;11.23;4.27;;;;;;;2.84;100.00;99436.03;124466;1099;103907;-76
2023/04/06 07:51:06;;;;;;;10.50;4.25;;;;;;;2.88;100.00;99435.38;124719;1099;103945;-73
2023/04/06 07:53:41;;;;;;;6.10;3.50;;;;;;;2.87;100.00;99438.77;124387;1099;103999;-77
2023/04/06 07:56:15;;;;;;;6.43;3.47;;;;;;;2.91;100.00;99439.80;124892;1099;103963;-74
2023/04/06 07:58:48;;;;;;;5.03;3.42;;;;;;;2.96;100.00;99445.21;124735;1099;102429;-75
2023/04/06 08:01:21;;;;;;;6.80;3.75;;;;;;;2.94;100.00;99449.44;124673;1099;103948;-75
2023/04/06 08:03:55;;;;;;;6.90;4.07;;;;;;;2.99;100.00;99447.95;124815;1099;104070;-80
2023/04/06 08:06:28;;;;;;;7.43;3.93;;;;;;;3.00;100.00;99447.16;124819;1099;101660;-74
2023/04/06 08:09:00;;;;;;;8.60;3.83;;;;;;;3.00;100.00;99453.22;124800;1099;101683;-74
2023/04/06 08:14:12;;;;;;;7.30;3.70;;;;;;;3.04;100.00;99449.09;124999;1099;103305;-73
2023/04/06 08:16:45;;;;;;;7.20;3.80;;;;;;;3.08;100.00;99455.30;124629;1099;103945;-71
2023/04/06 08:19:20;;;;;;;5.60;3.30;;;;;;;3.14;100.00;99460.78;124590;1099;111603;-72
2023/04/06 08:21:52;;;;;;;8.30;4.05;;;;;;;3.19;100.00;99462.77;124608;1098;103979;-72
2023/04/06 08:24:25;;;;;;;11.27;4.57;;;;;;;3.26;100.00;99465.66;124577;1099;104085;-72
2023/04/06 08:27:09;;;;;;;16.42;5.78;;;;;;;3.35;100.00;99460.91;124326;1099;101652;-72
2023/04/06 08:29:43;;;;;;;12.50;5.87;;;;;;;3.46;100.00;99464.93;124615;1099;104088;-73
2023/04/06 08:32:20;;;;;;;11.03;5.67;;;;;;;3.52;100.00;99460.03;124699;1099;103933;-77
2023/04/06 08:34:58;;;;;;;13.67;7.13;;;;;;;3.59;100.00;99463.80;124818;1099;104065;-73
2023/04/06 08:37:36;;;;;;;11.30;5.75;;;;;;;3.64;100.00;99461.41;124739;1099;101768;-72
2023/04/06 08:40:13;;;;;;;10.33;5.23;;;;;;;3.67;100.00;99469.34;124820;1099;107038;-76
2023/04/06 08:42:51;;;;;;;6.67;4.20;;;;;;;3.73;100.00;99482.60;125101;1099;104003;-76
2023/04/06 08:45:28;;;;;;;9.80;4.90;;;;;;;3.72;100.00;99479.09;124814;1099;102181;-77
2023/04/06 08:48:03;;;;;;;9.63;4.63;;;;;;;3.79;100.00;99482.89;124779;1099;101794;-73
2023/04/06 08:50:36;;;;;;;9.20;4.90;;;;;;;3.79;100.00;99488.08;124613;1099;103996;-72
2023/04/06 08:53:10;;;;;;;11.70;5.30;;;;;;;3.84;100.00;99488.29;124829;1099;104175;-72
2023/04/06 08:55:46;;;;;;;8.13;4.47;;;;;;;3.93;100.00;99489.59;124762;1099;103936;-74
2023/04/06 08:58:18;;;;;;;10.90;5.00;;;;;;;4.03;100.00;99492.61;124885;1099;104076;-72
2023/04/06 09:00:52;;;;;;;8.03;5.03;;;;;;;4.18;100.00;99492.43;124609;1099;104072;-71
2023/04/06 09:03:26;;;;;;;10.53;5.42;;;;;;;4.29;100.00;99491.19;124530;1099;104062;-73
2023/04/06 09:06:00;;;;;;;12.73;5.70;;;;;;;4.38;100.00;99496.80;124627;1098;101761;-72
2023/04/06 09:08:33;;;;;;;8.43;4.35;;;;;;;4.43;100.00;99497.87;124624;1099;104018;-72
2023/04/06 09:11:16;;;;;;;9.67;4.70;;;;;;;4.39;100.00;99497.67;124687;1099;104044;-76
2023/04/06 09:13:59;;;;;;;11.43;4.60;;;;;;;4.30;100.00;99498.14;124759;1099;101718;-75
2023/04/06 09:16:42;;;;;;;8.63;4.43;;;;;;;4.22;100.00;99497.80;125008;1098;101790;-75
2023/04/06 09:19:15;;;;;;;8.97;5.27;;;;;;;4.27;100.00;99504.11;124871;1100;104045;-77
2023/04/06 09:21:47;;;;;;;9.40;5.33;;;;;;;4.32;100.00;99504.31;124960;1099;101675;-72
2023/04/06 09:24:27;;;;;;;13.20;6.13;;;;;;;4.38;100.00;99509.78;124853;1099;103944;-73
2023/04/06 09:27:01;;;;;;;12.50;6.47;;;;;;;4.44;100.00;99514.34;125026;1099;103681;-74
2023/04/06 09:29:36;;;;;;;11.33;6.07;;;;;;;4.45;100.00;99517.01;124642;1099;104034;-74
2023/04/06 09:32:11;;;;;;;8.87;5.30;;;;;;;4.48;100.00;99517.14;124786;1099;103942;-74
2023/04/06 09:34:54;;;;;;;10.67;5.30;;;;;;;4.51;100.00;99521.59;124802;1098;103955;-74
2023/04/06 09:37:34;;;;;;;10.27;5.20;;;;;;;4.54;100.00;99528.65;124517;1099;101616;-76
2023/04/06 09:40:09;;;;;;;10.43;5.80;;;;;;;4.57;100.00;99527.06;124273;1098;104037;-72
2023/04/06 09:42:51;;;;;;;10.80;5.33;;;;;;;4.58;100.00;99534.05;124828;1098;102941;-75
2023/04/06 09:45:24;;;;;;;10.13;5.90;;;;;;;4.59;100.00;99527.13;124619;1099;104168;-75
2023/04/06 09:47:58;;;;;;;11.00;6.30;;;;;;;4.58;100.00;99538.34;124625;1099;104066;-73
2023/04/06 09:50:35;;;;;;;12.35;6.70;;;;;;;4.58;100.00;99534.05;124757;1099;104099;-76
2023/04/06 09:53:11;;;;;;;14.03;6.60;;;;;;;4.59;100.00;99537.53;124930;1098;101681;-74
2023/04/06 09:55:46;;;;;;;12.00;6.70;;;;;;;4.57;100.00;99534.86;124700;1099;102010;-74
2023/04/06 09:58:26;;;;;;;11.67;6.47;;;;;;;4.57;100.00;99542.66;124550;1098;104063;-80
2023/04/06 10:01:16;;;;;;;13.00;6.60;;;;;;;4.61;100.00;99543.67;124707;1099;101952;-73
2023/04/06 10:03:57;;;;;;;12.50;6.80;;;;;;;4.67;100.00;99555.25;124896;1099;101840;-75
2023/04/06 10:06:36;;;;;;;11.77;6.20;;;;;;;4.65;100.00;99550.79;124607;1099;104051;-73
2023/04/06 10:09:14;;;;;;;11.70;6.45;;;;;;;4.62;100.00;99551.53;124269;1099;102195;-83
2023/04/06 10:11:50;;;;;;;10.47;5.63;;;;;;;4.60;100.00;99560.98;125111;1099;107752;-75
2023/04/06 10:14:23;;;;;;;12.50;6.20;;;;;;;4.61;100.00;99564.45;124697;1099;104031;-74
2023/04/06 10:16:57;;;;;;;11.15;6.25;;;;;;;4.59;100.00;99561.79;124704;1099;102150;-76
2023/04/06 10:19:41;;;;;;;12.67;6.90;;;;;;;4.64;100.00;99573.30;124662;1099;104003;-71
2023/04/06 10:22:25;;;;;;;10.90;6.17;;;;;;;4.66;100.00;99571.64;124559;1099;118656;-71
2023/04/06 10:24:59;;;;;;;12.70;6.17;;;;;;;4.64;100.00;99581.09;124171;1099;104024;-76
2023/04/06 10:27:33;;;;;;;9.83;5.70;;;;;;;4.64;100.00;99580.19;124642;1099;103985;-73
2023/04/06 10:30:11;;;;;;;10.07;5.33;;;;;;;4.62;100.00;99584.44;124871;1099;103938;-72
2023/04/06 10:32:46;;;;;;;10.03;5.80;;;;;;;4.59;100.00;99577.38;124713;1099;101746;-73
2023/04/06 10:35:19;;;;;;;11.07;5.90;;;;;;;4.67;100.00;99578.63;124621;1099;104014;-71
2023/04/06 10:37:53;;;;;;;17.40;7.30;;;;;;;4.67;100.00;99586.43;124606;1099;104030;-72
2023/04/06 10:40:31;;;;;;;9.87;5.90;;;;;;;4.73;100.00;99590.11;124712;1099;104031;-73
2023/04/06 10:43:14;;;;;;;11.13;6.00;;;;;;;4.80;100.00;99584.34;125899;1098;111830;-73
2023/04/06 10:45:58;;;;;;;15.93;7.53;;;;;;;4.88;100.00;99589.87;125941;1098;103945;-73
2023/04/06 10:48:42;;;;;;;13.87;7.67;;;;;;;4.93;100.00;99593.59;124668;1099;101867;-72
2023/04/06 10:51:20;;;;;;;16.97;7.57;;;;;;;4.96;100.00;99597.20;124580;1099;104066;-73
2023/04/06 10:53:54;;;;;;;14.57;7.97;;;;;;;4.98;100.00;99592.95;124570;1099;104162;-72
2023/04/06 10:56:41;;;;;;;13.67;7.73;;;;;;;5.02;100.00;99604.39;124613;1099;101860;-69
2023/04/06 10:59:19;;;;;;;12.73;6.78;;;;;;;5.04;100.00;99603.62;124652;1099;103438;-73
2023/04/06 11:01:59;;;;;;;11.63;6.97;;;;;;;4.99;100.00;99610.34;124731;1099;102653;-74
2023/04/06 11:04:31;;;;;;;18.83;10.43;;;;;;;4.96;100.00;99610.20;124811;1099;103952;-74
2023/04/06 11:07:09;;;;;;;14.93;8.27;;;;;;;4.95;100.00;99618.81;124678;1099;101632;-71
2023/04/06 11:09:51;;;;;;;16.97;9.13;;;;;;;4.97;100.00;99614.59;124704;1099;103945;-72
2023/04/06 11:12:34;;;;;;;21.57;9.50;;;;;;;5.00;100.00;99617.33;124374;1099;103967;-73
2023/04/06 11:15:12;;;;;;;19.37;10.60;;;;;;;5.03;100.00;99620.06;124802;1099;101899;-73
2023/04/06 11:17:45;;;;;;;16.43;9.23;;;;;;;5.02;100.00;99620.00;126085;1098;101676;-73
2023/04/06 11:20:38;;;;;;;15.90;8.60;;;;;;;4.97;100.00;99624.08;125198;1099;103887;-75
2023/04/06 11:23:13;;;;;;;14.70;8.17;;;;;;;4.98;100.00;99625.88;124769;1099;104009;-74
2023/04/06 11:25:55;;;;;;;16.23;9.17;;;;;;;5.02;100.00;99631.27;125985;1098;104081;-70
2023/04/06 11:28:31;;;;;;;15.03;8.30;;;;;;;5.03;100.00;99617.46;124781;1099;104190;-71
2023/04/06 11:31:10;;;;;;;12.93;7.70;;;;;;;5.03;100.00;99620.06;124844;1099;103945;-70
2023/04/06 11:33:42;;;;;;;13.70;7.67;;;;;;;5.04;100.00;99626.14;125181;1099;102084;-69
2023/04/06 11:36:17;;;;;;;13.48;8.30;;;;;;;5.06;100.00;99629.69;124671;1099;101957;-70
2023/04/06 11:39:00;;;;;;;13.65;7.97;;;;;;;5.12;100.00;99637.75;124732;1099;103528;-71
2023/04/06 11:41:35;;;;;;;14.30;8.27;;;;;;;5.20;100.00;99640.69;124721;1099;104062;-72
2023/04/06 11:44:08;;;;;;;18.00;9.83;;;;;;;5.25;100.00;99649.61;124661;1099;107909;-71
2023/04/06 11:46:44;;;;;;;15.97;9.80;;;;;;;5.33;100.00;99655.11;124653;1099;103948;-70
2023/04/06 11:49:18;;;;;;;15.33;9.27;;;;;;;5.33;100.00;99662.91;124644;1099;103977;-70
2023/04/06 11:51:51;;;;;;;15.27;9.10;;;;;;;5.24;100.00;99675.55;124741;1098;104041;-70
2023/04/06 11:54:36;;;;;;;13.67;8.87;;;;;;;5.17;100.00;99677.88;124344;1099;118388;-72
2023/04/06 11:57:13;;;;;;;16.10;9.07;;;;;;;5.03;100.00;99685.07;124828;1099;104153;-74